Terminal Aerodrome Forecast
Issued by NWS Memphis, TN

Home | Current Version | Previous Version | Text Only | Print | Product List | Glossary On
Versions: 1 2 3 4 5 6 7 8 9 10 11 12 13 14 15 16 17 18 19
000
FTUS44 KMEG 291436 AAA
TAFMKL
TAF AMD
KMKL 291436Z 2915/3012 02007KT P6SM OVC010
     FM291900 02007KT P6SM BKN015 OVC250
     FM300200 03005KT P6SM OVC040=

USA.gov is the U.S. government's official web portal to all federal, state and local government web resources and services.